Duck, North Carolina
Current Conditions -  °F | °C
As of 7:35 PM on Monday 22 Dec 2014 (Local Time) from KFFA Reporting Station
Moderate Fog Moderate Fog  
Wind Chill: 53°   Ceiling: 100
Heat Index: 53°   Visibility: 0.25mi
Dew Point: 53°   Wind: 5mph
Humidity: 100%   Direction: 40°NE
Pressure: 29.96"   Gusts: NA
Location:  36.1034°N, 75.7289°W
Report Text: KFFA 230035Z AUTO 04004KT 1/4SM FG OVC001 12/12 A2996 RMK AO2 T01190119
Loading
Personal Weather Stations






























Interactive Weather Map New forecast layout! Learn more

10-Day Weather Forecast

Advertisements
Track Severe Weather on mobile